Time;durP1;ratioP1;P1;durP2;ratioP2;P2;SDS_P1;SDS_P2;PMS_P1;PMS_P2;Temp;Humidity;BMP_temperature;BMP_pressure;BME280_temperature;BME280_humidity;BME280_pressure;Samples;Min_cycle;Max_cycle;Signal;HPM_P1;HPM_P2
2023/06/02 00:01:22;;;;;;;1.23;0.70;;;;;;;25.33;26.74;100904.13;5031667;28;20041;-69
2023/06/02 00:03:55;;;;;;;4.00;1.00;;;;;;;25.33;28.56;100901.47;5041234;28;20119;-69
2023/06/02 00:06:26;;;;;;;3.47;1.00;;;;;;;25.33;28.44;100898.81;5047498;28;20147;-69
2023/06/02 00:08:57;;;;;;;1.55;0.80;;;;;;;25.35;27.85;100899.66;5043144;28;20045;-67
2023/06/02 00:11:26;;;;;;;4.10;0.70;;;;;;;25.37;27.36;100893.38;5055592;28;20052;-68
2023/06/02 00:13:55;;;;;;;0.80;0.80;;;;;;;25.37;28.92;100898.69;5056150;28;20052;-69
2023/06/02 00:16:23;;;;;;;2.05;0.85;;;;;;;25.35;27.83;100894.34;5056236;28;20167;-69
2023/06/02 00:18:52;;;;;;;1.50;0.57;;;;;;;25.25;29.23;100899.91;5063839;28;20045;-68
2023/06/02 00:21:22;;;;;;;2.65;1.23;;;;;;;25.14;28.23;100893.16;5064227;28;20155;-68
2023/06/02 00:23:53;;;;;;;1.15;0.75;;;;;;;25.09;29.44;100898.59;5055153;28;20052;-69
2023/06/02 00:26:23;;;;;;;2.80;0.80;;;;;;;25.06;28.93;100904.84;5066424;28;20052;-70
2023/06/02 00:28:53;;;;;;;2.60;0.90;;;;;;;25.08;28.26;100896.84;5061909;28;20053;-73
2023/06/02 00:31:21;;;;;;;5.00;1.45;;;;;;;25.12;29.49;100903.78;5068234;28;20047;-70
2023/06/02 00:33:50;;;;;;;3.92;1.02;;;;;;;25.15;29.71;100897.53;5063855;28;20062;-71
2023/06/02 00:36:18;;;;;;;3.60;0.90;;;;;;;25.15;28.85;100898.44;5066066;28;20071;-70
2023/06/02 00:38:50;;;;;;;1.85;0.98;;;;;;;25.13;28.15;100905.56;5070048;28;20052;-68
2023/06/02 00:41:20;;;;;;;2.40;0.90;;;;;;;25.09;29.07;100898.59;5060200;28;20048;-69
2023/06/02 00:43:49;;;;;;;2.13;0.82;;;;;;;25.12;30.18;100898.50;5069562;28;20514;-69
2023/06/02 00:46:17;;;;;;;1.75;1.10;;;;;;;25.09;29.45;100902.09;5067597;28;20056;-68
2023/06/02 00:48:49;;;;;;;5.60;0.98;;;;;;;25.07;28.70;100900.41;5060585;28;20498;-69
2023/06/02 00:51:18;;;;;;;3.72;1.08;;;;;;;25.08;29.34;100900.38;5061717;28;20143;-69
2023/06/02 00:53:47;;;;;;;2.42;0.98;;;;;;;25.09;29.67;100903.91;5056952;28;20048;-72
2023/06/02 00:56:16;;;;;;;1.80;1.13;;;;;;;25.06;29.37;100893.41;5074489;28;20456;-69
2023/06/02 00:58:49;;;;;;;2.80;1.05;;;;;;;24.88;28.90;100898.28;5060989;28;20052;-70
2023/06/02 01:01:19;;;;;;;3.65;1.13;;;;;;;24.92;28.54;100891.13;5066091;28;20068;-69
2023/06/02 01:03:51;;;;;;;2.60;1.02;;;;;;;24.93;28.53;100895.50;5069484;28;20483;-69
2023/06/02 01:06:23;;;;;;;1.95;0.98;;;;;;;24.86;29.73;100892.16;5062894;28;20114;-69
2023/06/02 01:08:52;;;;;;;5.03;1.40;;;;;;;24.82;28.98;100894.94;5068522;28;20079;-69
2023/06/02 01:11:21;;;;;;;3.45;1.10;;;;;;;24.69;28.92;100896.19;5051269;28;20056;-69
2023/06/02 01:13:52;;;;;;;3.85;1.35;;;;;;;24.66;30.02;100899.78;5039683;28;20045;-68
2023/06/02 01:16:20;;;;;;;4.15;1.10;;;;;;;24.58;28.35;100892.06;5044265;28;20083;-69
2023/06/02 01:18:55;;;;;;;3.53;1.30;;;;;;;24.49;29.20;100897.59;5044332;28;20045;-70
2023/06/02 01:21:28;;;;;;;1.95;1.00;;;;;;;24.39;30.54;100890.75;5045878;28;20060;-71
2023/06/02 01:23:59;;;;;;;3.50;1.52;;;;;;;24.37;30.06;100897.84;5046680;28;20076;-70
2023/06/02 01:26:29;;;;;;;4.22;1.00;;;;;;;24.35;29.69;100895.25;5041398;28;20041;-70
2023/06/02 01:28:57;;;;;;;3.00;1.27;;;;;;;24.35;29.55;100897.91;5049736;28;20565;-70
2023/06/02 01:31:30;;;;;;;3.22;1.30;;;;;;;24.25;28.69;100905.19;5043688;28;20453;-70
2023/06/02 01:34:07;;;;;;;3.67;1.20;;;;;;;24.10;29.97;100899.41;5036744;28;20045;-71
2023/06/02 01:36:39;;;;;;;2.28;1.10;;;;;;;24.03;29.81;100904.00;5050403;28;20545;-71
2023/06/02 01:39:11;;;;;;;1.77;1.13;;;;;;;24.00;30.48;100909.31;5043144;28;20044;-70
2023/06/02 01:41:44;;;;;;;4.78;1.20;;;;;;;24.00;29.94;100910.19;5045480;28;20099;-69
2023/06/02 01:44:13;;;;;;;1.88;1.13;;;;;;;23.90;30.12;100902.53;5046267;28;20053;-71
2023/06/02 01:46:42;;;;;;;4.20;1.50;;;;;;;23.71;30.08;100907.31;5048319;28;20107;-70
2023/06/02 01:49:16;;;;;;;1.50;1.08;;;;;;;23.58;30.86;100906.75;5043203;28;20655;-70
2023/06/02 01:51:45;;;;;;;1.60;1.27;;;;;;;23.51;30.37;100911.28;5037414;28;20446;-70
2023/06/02 01:54:15;;;;;;;3.38;1.42;;;;;;;23.51;31.60;100906.00;5043080;28;20049;-70
2023/06/02 01:56:43;;;;;;;2.22;1.27;;;;;;;23.47;31.54;100906.97;5039560;28;20057;-70
2023/06/02 01:59:12;;;;;;;1.77;1.10;;;;;;;23.43;31.45;100902.66;5034526;28;20037;-70
2023/06/02 02:01:42;;;;;;;3.10;1.33;;;;;;;23.41;31.66;100909.75;5042363;28;20068;-71
2023/06/02 02:04:10;;;;;;;2.45;1.30;;;;;;;23.39;31.93;100901.84;5041156;28;20059;-72
2023/06/02 02:06:39;;;;;;;2.25;1.05;;;;;;;23.32;31.88;100910.81;5041807;28;20076;-71
2023/06/02 02:09:08;;;;;;;2.40;1.20;;;;;;;23.28;31.36;100908.28;5047573;28;20069;-70
2023/06/02 02:11:39;;;;;;;3.03;1.60;;;;;;;23.19;30.77;100906.69;5058300;27;20084;-70
2023/06/02 02:14:08;;;;;;;2.88;1.45;;;;;;;23.15;32.48;100903.22;5057308;28;20076;-78
2023/06/02 02:16:44;;;;;;;2.10;1.40;;;;;;;23.17;32.83;100905.84;5055373;28;20052;-78
2023/06/02 02:19:13;;;;;;;2.90;1.30;;;;;;;23.07;34.10;100902.53;5050397;28;20041;-71
2023/06/02 02:21:43;;;;;;;5.28;1.60;;;;;;;23.11;33.62;100906.84;5071713;28;20044;-74
2023/06/02 02:24:11;;;;;;;5.15;1.40;;;;;;;23.11;33.62;100917.41;5058646;28;20052;-70
2023/06/02 02:26:43;;;;;;;4.50;1.20;;;;;;;23.05;33.15;100912.22;5068865;28;20049;-69
2023/06/02 02:29:12;;;;;;;5.13;1.30;;;;;;;23.05;33.56;100911.38;5067048;28;20045;-69
2023/06/02 02:31:40;;;;;;;3.03;1.15;;;;;;;23.02;33.96;100917.59;5057344;28;20064;-68
2023/06/02 02:34:09;;;;;;;2.53;1.23;;;;;;;23.01;33.96;100918.47;5061457;28;20060;-69
2023/06/02 02:36:39;;;;;;;5.05;1.50;;;;;;;22.99;33.86;100917.63;5067920;28;20422;-69
2023/06/02 02:39:08;;;;;;;2.65;1.17;;;;;;;22.96;34.04;100922.94;5066500;28;20055;-69
2023/06/02 02:41:37;;;;;;;3.90;1.33;;;;;;;22.96;33.66;100929.06;5056828;28;20064;-69
2023/06/02 02:44:07;;;;;;;3.05;1.60;;;;;;;22.94;32.98;100930.00;5061278;28;20645;-68
2023/06/02 02:46:36;;;;;;;2.60;1.27;;;;;;;22.91;34.03;100930.06;5064235;28;20503;-69
2023/06/02 02:49:05;;;;;;;2.95;1.52;;;;;;;22.88;34.25;100930.97;5062715;28;20052;-69
2023/06/02 02:51:33;;;;;;;2.45;1.20;;;;;;;22.80;33.59;100930.28;5062695;28;20044;-68
2023/06/02 02:54:02;;;;;;;3.90;1.30;;;;;;;22.75;34.51;100937.41;5067428;28;20056;-68
2023/06/02 02:56:30;;;;;;;2.72;1.08;;;;;;;22.68;34.65;100944.56;5062850;28;20636;-69
2023/06/02 02:59:00;;;;;;;2.85;0.90;;;;;;;22.63;35.30;100940.25;5044562;28;20764;-68
2023/06/02 03:01:32;;;;;;;2.25;1.00;;;;;;;22.54;35.15;100946.53;5049344;28;20142;-69
2023/06/02 03:04:03;;;;;;;1.45;0.80;;;;;;;22.47;34.97;100952.81;5061735;28;20187;-69
2023/06/02 03:06:43;;;;;;;2.85;1.08;;;;;;;22.38;34.95;100951.22;5062853;28;20060;-68
2023/06/02 03:09:12;;;;;;;4.90;1.05;;;;;;;22.29;35.62;100962.78;5062547;28;20131;-70
2023/06/02 03:11:49;;;;;;;2.20;0.90;;;;;;;22.21;35.66;100959.38;5064858;28;20391;-69
2023/06/02 03:14:26;;;;;;;1.40;1.00;;;;;;;22.13;35.16;100966.50;5066045;28;20040;-68
2023/06/02 03:16:56;;;;;;;3.60;1.08;;;;;;;22.04;35.73;100966.66;5061116;28;20040;-69
2023/06/02 03:19:26;;;;;;;1.85;0.80;;;;;;;21.93;36.54;100977.31;5059164;28;20422;-68
2023/06/02 03:21:56;;;;;;;2.33;0.77;;;;;;;21.82;36.86;100973.97;5064379;28;20043;-68
2023/06/02 03:24:24;;;;;;;1.60;0.90;;;;;;;21.72;36.41;100986.41;5061893;28;20086;-68
2023/06/02 03:26:55;;;;;;;4.35;0.95;;;;;;;21.58;35.84;100983.94;5063794;28;20064;-68
2023/06/02 03:29:24;;;;;;;3.45;1.00;;;;;;;21.46;36.78;100978.81;5062769;28;20048;-70
2023/06/02 03:31:53;;;;;;;2.60;0.93;;;;;;;21.35;37.03;100999.97;5065160;28;20049;-69
2023/06/02 03:34:24;;;;;;;2.67;0.80;;;;;;;21.19;37.36;100990.47;5061720;28;20044;-68
2023/06/02 03:36:52;;;;;;;1.88;0.90;;;;;;;21.08;37.36;100990.59;5060845;28;20648;-69
2023/06/02 03:39:27;;;;;;;2.15;0.90;;;;;;;20.99;36.85;100995.97;5061324;28;20110;-70
2023/06/02 03:41:56;;;;;;;2.45;0.93;;;;;;;20.87;37.33;101005.72;5063149;28;20051;-67
2023/06/02 03:44:24;;;;;;;3.08;1.30;;;;;;;20.79;37.20;101007.50;5060720;28;20052;-68
2023/06/02 03:46:53;;;;;;;3.40;1.10;;;;;;;20.70;37.65;101010.22;5062274;28;20057;-67
2023/06/02 03:49:26;;;;;;;3.10;1.10;;;;;;;20.62;38.02;101020.81;5068964;28;20105;-67
2023/06/02 03:51:55;;;;;;;1.13;0.77;;;;;;;20.53;38.20;101015.59;5067611;28;20055;-67
2023/06/02 03:54:24;;;;;;;2.10;0.60;;;;;;;20.45;38.09;101017.41;5066024;28;20649;-66
2023/06/02 03:56:52;;;;;;;4.35;0.65;;;;;;;20.36;38.36;101018.31;5068389;28;20091;-66
2023/06/02 03:59:21;;;;;;;3.15;1.10;;;;;;;20.28;38.50;101020.16;5070106;28;20049;-67
2023/06/02 04:01:52;;;;;;;1.33;0.60;;;;;;;20.15;38.83;101019.34;5075170;28;20044;-68
2023/06/02 04:04:20;;;;;;;1.02;0.50;;;;;;;20.11;38.91;101028.09;5065399;28;20686;-69
2023/06/02 04:06:50;;;;;;;2.88;0.80;;;;;;;20.04;38.99;101035.19;5069032;28;20036;-69
2023/06/02 04:09:19;;;;;;;1.45;0.65;;;;;;;19.96;38.80;101038.72;5062582;28;20134;-68
2023/06/02 04:11:48;;;;;;;2.78;0.73;;;;;;;19.88;39.39;101039.63;5064734;28;20056;-68
2023/06/02 04:14:19;;;;;;;2.05;0.70;;;;;;;19.83;39.48;101043.13;5070686;28;20048;-67
2023/06/02 04:16:47;;;;;;;0.68;0.52;;;;;;;19.75;39.83;101050.19;5063990;28;20058;-68
2023/06/02 04:19:16;;;;;;;1.98;0.65;;;;;;;19.67;39.96;101048.41;5071392;28;20527;-68
2023/06/02 04:21:44;;;;;;;6.63;0.93;;;;;;;19.57;39.79;101054.56;5068421;28;20068;-69
2023/06/02 04:24:15;;;;;;;1.88;0.77;;;;;;;19.50;40.01;101055.47;5058598;28;20049;-68
2023/06/02 04:26:43;;;;;;;2.47;0.98;;;;;;;19.43;40.02;101054.59;5068095;28;20056;-68
2023/06/02 04:29:12;;;;;;;1.88;0.57;;;;;;;19.38;40.19;101066.88;5065349;28;20062;-68
2023/06/02 04:31:42;;;;;;;2.83;0.77;;;;;;;19.33;40.06;101062.50;5065114;28;20079;-67
2023/06/02 04:34:11;;;;;;;2.78;0.80;;;;;;;19.27;39.96;101073.00;5074449;28;20113;-67
2023/06/02 04:36:39;;;;;;;1.42;0.82;;;;;;;19.17;40.59;101066.88;5065615;28;20048;-68
2023/06/02 04:39:09;;;;;;;1.30;0.60;;;;;;;19.08;40.57;101072.13;5067386;28;20053;-69
2023/06/02 04:41:39;;;;;;;3.03;0.77;;;;;;;19.00;41.99;101082.63;5073851;28;20122;-68
2023/06/02 04:44:08;;;;;;;1.88;0.70;;;;;;;18.92;41.94;101077.41;5062907;28;20553;-69
2023/06/02 04:46:37;;;;;;;1.35;0.70;;;;;;;18.84;42.18;101089.63;5070331;28;20068;-69
2023/06/02 04:49:08;;;;;;;1.92;0.60;;;;;;;18.73;41.74;101091.31;5072075;28;20133;-68
2023/06/02 04:51:38;;;;;;;2.55;0.68;;;;;;;18.65;42.37;101087.84;5067271;28;20097;-68
2023/06/02 04:54:07;;;;;;;1.33;0.80;;;;;;;18.56;42.48;101094.78;5071489;28;20106;-69
2023/06/02 04:56:36;;;;;;;1.38;0.73;;;;;;;18.49;42.64;101092.16;5068178;28;20048;-69
2023/06/02 04:59:07;;;;;;;2.30;0.90;;;;;;;18.39;42.57;101100.00;5066144;28;20126;-68
2023/06/02 05:01:35;;;;;;;0.95;0.70;;;;;;;18.33;42.68;101102.59;5062974;28;20041;-68
2023/06/02 05:04:05;;;;;;;1.10;0.68;;;;;;;18.22;42.71;101099.06;5072476;28;20056;-69
2023/06/02 05:06:34;;;;;;;1.58;0.73;;;;;;;18.17;42.81;101106.03;5071219;28;20076;-70
2023/06/02 05:09:03;;;;;;;0.70;0.50;;;;;;;18.10;43.20;101099.91;5063674;28;20040;-70
2023/06/02 05:11:32;;;;;;;3.00;0.73;;;;;;;18.04;42.87;101093.75;5053050;28;20103;-69
2023/06/02 05:14:01;;;;;;;3.05;0.90;;;;;;;17.96;43.17;101104.22;5039545;28;20147;-70
2023/06/02 05:16:31;;;;;;;2.13;0.70;;;;;;;17.90;43.90;101104.16;5044852;28;20069;-70
2023/06/02 05:19:00;;;;;;;1.02;0.65;;;;;;;17.82;43.59;101104.13;5045205;28;20041;-70
2023/06/02 05:21:36;;;;;;;0.70;0.52;;;;;;;17.73;43.39;101099.69;5041376;28;20045;-70
2023/06/02 05:24:05;;;;;;;2.88;0.55;;;;;;;17.67;43.11;101109.25;5042071;28;20065;-69
2023/06/02 05:26:34;;;;;;;1.95;0.70;;;;;;;17.52;43.84;101100.44;5041926;28;20049;-71
2023/06/02 05:29:02;;;;;;;0.88;0.65;;;;;;;17.57;44.23;101108.31;5041384;28;20049;-70
2023/06/02 05:31:32;;;;;;;3.70;0.70;;;;;;;17.54;44.39;101119.63;5039162;28;20053;-70
2023/06/02 05:34:01;;;;;;;1.23;0.60;;;;;;;17.49;44.25;101112.63;5039160;28;20734;-70
2023/06/02 05:36:29;;;;;;;2.38;0.80;;;;;;;17.45;43.96;101114.31;5044009;28;20056;-70
2023/06/02 05:38:59;;;;;;;1.88;0.80;;;;;;;17.41;44.34;101120.41;5040810;28;20041;-71
2023/06/02 05:41:28;;;;;;;2.83;0.70;;;;;;;17.37;44.74;101132.59;5042163;28;20076;-70
2023/06/02 05:43:58;;;;;;;2.95;1.02;;;;;;;17.30;44.42;101128.19;5044135;28;20128;-70
2023/06/02 05:46:27;;;;;;;1.38;0.73;;;;;;;17.23;44.89;101129.00;5045019;28;20048;-71
2023/06/02 05:48:57;;;;;;;3.65;0.70;;;;;;;17.17;46.23;101134.16;5044717;28;20053;-70
2023/06/02 05:51:26;;;;;;;1.83;0.82;;;;;;;17.12;45.29;101131.50;5027704;28;20064;-70
2023/06/02 05:53:58;;;;;;;1.27;0.70;;;;;;;17.07;45.68;101132.34;5046357;28;20052;-70
2023/06/02 05:56:26;;;;;;;1.73;1.00;;;;;;;17.02;46.30;101139.25;5043524;28;20056;-71
2023/06/02 05:58:55;;;;;;;2.35;0.70;;;;;;;16.95;46.34;101133.97;5041847;28;20091;-70
2023/06/02 06:01:23;;;;;;;1.00;0.60;;;;;;;16.88;46.24;101132.19;5036719;28;20053;-71
2023/06/02 06:03:52;;;;;;;4.72;0.63;;;;;;;16.81;46.21;101130.34;5041977;28;20138;-70
2023/06/02 06:06:22;;;;;;;0.95;0.70;;;;;;;16.75;46.76;101130.28;5037625;28;20539;-69
2023/06/02 06:08:50;;;;;;;2.50;0.40;;;;;;;16.71;46.65;101128.47;5036872;28;20178;-70
2023/06/02 06:11:19;;;;;;;0.93;0.50;;;;;;;16.68;47.14;101125.84;5045106;27;20118;-70
2023/06/02 06:13:48;;;;;;;1.95;0.85;;;;;;;16.63;46.91;101123.19;5044471;28;20064;-70
2023/06/02 06:16:16;;;;;;;2.08;0.73;;;;;;;16.60;47.49;101119.66;5034393;28;20057;-70
2023/06/02 06:18:46;;;;;;;3.30;0.55;;;;;;;16.52;48.77;101125.66;5031465;28;20741;-69
2023/06/02 06:21:14;;;;;;;1.70;0.73;;;;;;;16.46;49.31;101128.19;5047227;28;20061;-69
2023/06/02 06:23:44;;;;;;;2.58;0.65;;;;;;;16.39;48.63;101123.78;5040136;28;20593;-70
2023/06/02 06:26:13;;;;;;;0.85;0.57;;;;;;;16.32;48.73;101130.66;5040056;28;20053;-69
2023/06/02 06:28:47;;;;;;;1.33;0.68;;;;;;;16.23;49.96;101133.16;5038879;28;20487;-70
2023/06/02 06:31:18;;;;;;;1.30;0.70;;;;;;;16.12;51.07;101135.63;5042311;28;20052;-69
2023/06/02 06:33:47;;;;;;;1.30;0.77;;;;;;;16.02;50.38;101130.28;5042274;28;20053;-70
2023/06/02 06:36:15;;;;;;;2.53;0.90;;;;;;;15.91;50.83;101138.84;5038090;28;20052;-70
2023/06/02 06:38:47;;;;;;;1.13;0.80;;;;;;;15.83;51.05;101142.22;5040035;28;20048;-70
2023/06/02 06:41:18;;;;;;;1.40;0.90;;;;;;;15.68;51.02;101146.31;5031322;28;20053;-70
2023/06/02 06:43:47;;;;;;;1.58;0.50;;;;;;;15.61;50.74;101149.69;5048303;28;20049;-70
2023/06/02 06:46:16;;;;;;;0.80;0.70;;;;;;;15.54;51.48;101158.25;5044092;28;20091;-70
2023/06/02 06:48:45;;;;;;;1.25;0.55;;;;;;;15.41;51.45;101157.19;5045988;28;20037;-71
2023/06/02 06:51:14;;;;;;;0.75;0.40;;;;;;;15.31;51.62;101162.25;5043822;28;20071;-70
2023/06/02 06:53:42;;;;;;;1.38;0.70;;;;;;;15.22;52.11;101163.84;5038324;28;20049;-70
2023/06/02 06:56:12;;;;;;;1.30;0.95;;;;;;;15.19;51.61;101169.00;5026495;28;20041;-70
2023/06/02 06:58:41;;;;;;;1.00;0.60;;;;;;;15.15;52.43;101184.56;5044158;28;20511;-69
2023/06/02 07:01:10;;;;;;;4.03;0.77;;;;;;;15.06;54.07;101185.28;5032146;28;20098;-69
2023/06/02 07:03:38;;;;;;;6.55;0.75;;;;;;;14.96;55.91;101181.63;5040283;28;20052;-70
2023/06/02 07:06:07;;;;;;;1.90;0.90;;;;;;;14.90;56.52;101175.44;5041965;28;20057;-70
2023/06/02 07:08:37;;;;;;;3.17;0.90;;;;;;;14.83;57.86;101179.63;5038411;28;20573;-70
2023/06/02 07:11:06;;;;;;;5.68;0.90;;;;;;;14.77;57.86;101188.19;5043955;27;20065;-70
2023/06/02 07:13:36;;;;;;;2.10;0.85;;;;;;;14.72;57.51;101197.66;5046365;28;20106;-70
2023/06/02 07:16:12;;;;;;;1.55;0.68;;;;;;;14.71;57.38;101189.84;5044803;28;20060;-70
2023/06/02 07:18:41;;;;;;;1.00;0.68;;;;;;;14.69;57.80;101205.44;5042023;28;20463;-70
2023/06/02 07:21:10;;;;;;;2.15;0.63;;;;;;;14.65;58.48;101198.38;5038527;28;21287;-69
2023/06/02 07:23:38;;;;;;;2.35;0.73;;;;;;;14.57;58.74;101194.78;5042439;28;20102;-70
2023/06/02 07:26:07;;;;;;;1.08;0.70;;;;;;;14.46;59.09;101203.19;5040329;28;20533;-70
2023/06/02 07:28:37;;;;;;;4.15;0.80;;;;;;;14.37;59.71;101202.13;5041450;28;20042;-70
2023/06/02 07:31:06;;;;;;;3.00;0.85;;;;;;;14.32;59.95;101204.63;5044635;28;20082;-70
2023/06/02 07:33:34;;;;;;;1.20;0.77;;;;;;;14.27;61.36;101211.47;5042871;28;21167;-70
2023/06/02 07:36:03;;;;;;;0.88;0.60;;;;;;;14.17;61.79;101212.97;5037855;28;20053;-71
2023/06/02 07:38:34;;;;;;;1.95;0.52;;;;;;;14.09;61.37;101214.53;5052643;28;20530;-69
2023/06/02 07:41:03;;;;;;;1.38;0.68;;;;;;;14.08;61.04;101215.38;5038526;28;20056;-70
2023/06/02 07:43:32;;;;;;;1.42;0.68;;;;;;;14.07;61.10;101215.38;5043855;28;20687;-70
2023/06/02 07:46:03;;;;;;;4.35;0.82;;;;;;;13.93;62.43;101200.31;5036953;28;20052;-70
2023/06/02 07:48:33;;;;;;;2.83;0.90;;;;;;;13.90;62.48;101205.41;5041782;28;20048;-70
2023/06/02 07:51:02;;;;;;;2.10;0.90;;;;;;;13.87;62.10;101202.75;5041733;28;20053;-70
2023/06/02 07:53:31;;;;;;;1.30;0.68;;;;;;;13.85;62.04;101204.44;5041444;28;20049;-70
2023/06/02 07:55:59;;;;;;;1.55;0.60;;;;;;;13.78;62.57;101210.34;5042828;28;20814;-70
2023/06/02 07:58:28;;;;;;;2.70;0.80;;;;;;;13.73;62.53;101211.97;5040730;28;20057;-70
2023/06/02 08:01:02;;;;;;;2.33;0.85;;;;;;;13.66;62.96;101210.06;5038526;28;20041;-70
2023/06/02 08:03:30;;;;;;;0.75;0.60;;;;;;;13.60;62.98;101215.97;5044838;28;20682;-70
2023/06/02 08:05:59;;;;;;;2.40;0.75;;;;;;;13.56;63.54;101209.84;5042844;28;20598;-70
2023/06/02 08:08:28;;;;;;;2.25;0.82;;;;;;;13.50;62.71;101209.69;5042116;28;20052;-71
2023/06/02 08:11:02;;;;;;;3.42;0.90;;;;;;;13.45;63.39;101223.44;5046137;28;20065;-70
2023/06/02 08:13:31;;;;;;;2.47;1.10;;;;;;;13.40;63.82;101223.31;5061558;28;20635;-70
2023/06/02 08:16:00;;;;;;;3.67;0.90;;;;;;;13.29;64.15;101219.56;5060509;28;20048;-70
2023/06/02 08:18:30;;;;;;;2.35;0.82;;;;;;;13.26;64.08;101220.28;5061084;28;20064;-70
2023/06/02 08:21:05;;;;;;;3.63;0.77;;;;;;;13.24;64.78;101221.09;5061001;28;20056;-71
2023/06/02 08:23:34;;;;;;;2.53;0.75;;;;;;;13.20;66.12;101226.22;5061496;28;20648;-70
2023/06/02 08:26:03;;;;;;;1.23;0.60;;;;;;;13.17;65.86;101226.16;5057817;28;20066;-70
2023/06/02 08:28:33;;;;;;;5.32;0.80;;;;;;;13.12;66.64;101227.72;5061827;28;20056;-71
2023/06/02 08:31:03;;;;;;;1.05;0.65;;;;;;;12.99;68.37;101223.06;5057091;28;20052;-71
2023/06/02 08:33:35;;;;;;;1.42;0.70;;;;;;;12.92;69.24;101223.75;5056561;28;20117;-71
2023/06/02 08:36:06;;;;;;;0.73;0.60;;;;;;;12.88;69.58;101216.69;5065549;28;20052;-71
2023/06/02 08:38:37;;;;;;;1.20;0.75;;;;;;;12.85;68.90;101232.16;5065759;28;20068;-71
2023/06/02 08:41:11;;;;;;;1.55;0.65;;;;;;;12.81;68.80;101225.16;5059040;28;20513;-71
2023/06/02 08:43:40;;;;;;;0.85;0.50;;;;;;;12.75;68.92;101226.72;5063038;28;20559;-70
2023/06/02 08:46:13;;;;;;;2.08;0.85;;;;;;;12.71;68.75;101219.72;5059694;28;20040;-70
2023/06/02 08:48:46;;;;;;;1.75;0.70;;;;;;;12.68;68.80;101219.59;5064011;28;20493;-70
2023/06/02 08:51:24;;;;;;;1.10;0.60;;;;;;;12.68;68.31;101214.41;5052093;28;20053;-70
2023/06/02 08:53:53;;;;;;;5.03;0.98;;;;;;;12.65;67.78;101208.28;5063842;28;20048;-70
2023/06/02 08:56:23;;;;;;;1.27;0.70;;;;;;;12.60;68.30;101215.94;5062258;28;20045;-71
2023/06/02 08:58:52;;;;;;;1.98;0.90;;;;;;;12.56;68.43;101211.47;5063513;28;20059;-71
2023/06/02 09:01:20;;;;;;;2.97;0.80;;;;;;;12.52;68.89;101215.69;5059005;28;20056;-70
2023/06/02 09:03:51;;;;;;;2.40;0.93;;;;;;;12.44;69.44;101213.69;5063884;28;20040;-70
2023/06/02 09:06:22;;;;;;;0.88;0.73;;;;;;;12.36;70.19;101216.06;5062221;28;20106;-70
2023/06/02 09:08:57;;;;;;;8.65;1.00;;;;;;;12.30;70.33;101226.25;5061571;28;20632;-70
2023/06/02 09:11:27;;;;;;;1.17;0.80;;;;;;;12.29;70.67;101230.59;5061281;28;20069;-70
2023/06/02 09:13:56;;;;;;;4.68;0.82;;;;;;;12.27;70.42;101228.78;5072745;28;20660;-70
2023/06/02 09:16:40;;;;;;;2.42;0.90;;;;;;;12.22;71.06;101231.22;5080217;28;20096;-71
2023/06/02 09:19:10;;;;;;;6.15;0.80;;;;;;;12.13;71.31;101229.22;5057086;28;20055;-70
2023/06/02 09:21:39;;;;;;;0.95;0.65;;;;;;;12.14;71.92;101240.53;5071853;28;20037;-70
2023/06/02 09:24:09;;;;;;;2.08;1.00;;;;;;;12.10;71.43;101243.84;5067862;28;20056;-70
2023/06/02 09:26:38;;;;;;;1.48;0.80;;;;;;;12.02;71.85;101250.50;5070583;28;20139;-70
2023/06/02 09:29:08;;;;;;;1.52;0.93;;;;;;;11.93;72.29;101239.00;5066772;28;20052;-70
2023/06/02 09:31:52;;;;;;;2.55;0.68;;;;;;;11.93;72.18;101244.19;5069552;28;20044;-71
2023/06/02 09:34:23;;;;;;;2.17;0.90;;;;;;;11.93;72.34;101241.59;5069243;28;20076;-71
2023/06/02 09:36:53;;;;;;;1.85;0.88;;;;;;;11.90;72.81;101246.69;5066410;28;20044;-69
2023/06/02 09:39:43;;;;;;;1.40;0.75;;;;;;;11.85;72.38;101243.03;5063763;28;20055;-70
2023/06/02 09:42:13;;;;;;;1.13;0.65;;;;;;;11.78;72.86;101246.25;5058610;28;20048;-70
2023/06/02 09:44:42;;;;;;;1.75;0.80;;;;;;;11.71;73.15;101241.72;5068928;28;20044;-70
2023/06/02 09:47:37;;;;;;;2.15;0.68;;;;;;;11.66;73.44;101240.66;5067106;28;20604;-70
2023/06/02 09:50:10;;;;;;;6.10;0.77;;;;;;;11.63;74.03;101245.75;5062725;28;20165;-70
2023/06/02 09:52:39;;;;;;;1.40;0.75;;;;;;;11.59;74.22;101244.78;5062659;28;20051;-70
2023/06/02 09:55:11;;;;;;;1.58;0.60;;;;;;;11.57;74.17;101241.25;5071761;28;20079;-70
2023/06/02 09:57:45;;;;;;;1.35;0.77;;;;;;;11.55;74.73;101242.91;5067249;28;20049;-70
2023/06/02 10:00:19;;;;;;;5.13;0.85;;;;;;;11.51;74.22;101236.72;5058977;28;20101;-70
2023/06/02 10:02:48;;;;;;;0.88;0.57;;;;;;;11.49;75.08;101242.69;5066768;28;20487;-70
2023/06/02 10:05:22;;;;;;;1.50;0.63;;;;;;;11.46;74.25;101243.47;5065678;28;20665;-70
2023/06/02 10:07:59;;;;;;;2.25;0.70;;;;;;;11.45;73.94;101249.50;5068260;28;20040;-71
2023/06/02 10:10:41;;;;;;;6.18;0.90;;;;;;;11.47;73.96;101257.31;5064142;28;20568;-70
2023/06/02 10:13:44;;;;;;;3.53;0.82;;;;;;;11.48;72.51;101257.38;5049920;28;20055;-70
2023/06/02 10:16:29;;;;;;;2.38;0.70;;;;;;;11.49;72.73;101258.25;5046178;28;20076;-70
2023/06/02 10:19:30;;;;;;;0.82;0.60;;;;;;;11.49;72.17;101259.13;5043838;28;20053;-70
2023/06/02 10:22:17;;;;;;;3.75;1.08;;;;;;;11.48;71.86;101256.50;5041546;28;20057;-70
2023/06/02 10:24:56;;;;;;;0.60;0.50;;;;;;;11.48;71.97;101251.31;5044582;28;20679;-70
2023/06/02 10:27:31;;;;;;;1.60;0.70;;;;;;;11.49;71.85;101248.75;5050832;28;20057;-70
2023/06/02 10:30:01;;;;;;;3.90;0.70;;;;;;;11.52;71.31;101243.69;5045233;28;20057;-70
2023/06/02 10:32:33;;;;;;;2.30;0.90;;;;;;;11.54;70.87;101243.72;5042312;28;20533;-68
2023/06/02 10:35:05;;;;;;;1.60;0.65;;;;;;;11.51;70.30;101247.09;5042188;28;20064;-69
2023/06/02 10:37:37;;;;;;;0.80;0.57;;;;;;;11.49;70.92;101248.75;5042225;28;20051;-69
2023/06/02 10:40:06;;;;;;;1.33;0.70;;;;;;;11.49;70.72;101251.34;5043108;28;20616;-68
2023/06/02 10:42:36;;;;;;;1.77;1.45;;;;;;;11.48;70.60;101251.31;5040765;28;20049;-69
2023/06/02 10:45:41;;;;;;;0.88;0.60;;;;;;;11.42;70.43;101246.78;5049515;28;20064;-70
2023/06/02 10:48:40;;;;;;;1.67;0.60;;;;;;;11.35;71.26;101239.66;5043341;28;20049;-69
2023/06/02 10:51:10;;;;;;;2.28;0.70;;;;;;;11.31;71.22;101242.94;5039715;28;20787;-70
2023/06/02 10:54:19;;;;;;;1.40;0.68;;;;;;;11.27;71.78;101246.25;5041049;28;20115;-70
2023/06/02 10:56:55;;;;;;;0.52;0.50;;;;;;;11.24;72.54;101252.22;5007079;28;20049;-69
2023/06/02 10:59:36;;;;;;;2.83;0.98;;;;;;;11.22;71.66;101255.59;5041609;28;20051;-70
2023/06/02 11:02:05;;;;;;;1.95;1.10;;;;;;;11.18;72.44;101253.72;5043527;28;20056;-69
2023/06/02 11:04:34;;;;;;;1.13;0.68;;;;;;;11.15;71.99;101261.38;5046166;28;20053;-70
2023/06/02 11:07:21;;;;;;;1.63;0.75;;;;;;;11.01;72.58;101243.66;5055242;28;20047;-69
2023/06/02 11:10:00;;;;;;;3.33;0.85;;;;;;;11.05;72.93;101255.88;5041813;28;20041;-68
2023/06/02 11:13:06;;;;;;;0.90;0.60;;;;;;;11.03;73.29;101262.72;5058095;28;20559;-69
2023/06/02 11:15:36;;;;;;;2.50;0.80;;;;;;;11.00;73.99;101267.78;5062799;28;20048;-69
2023/06/02 11:18:42;;;;;;;0.60;0.40;;;;;;;10.92;75.25;101269.22;5061381;28;20048;-70
2023/06/02 11:21:19;;;;;;;1.70;0.70;;;;;;;10.76;77.12;101270.34;5061027;28;20048;-70
2023/06/02 11:23:47;;;;;;;2.20;0.65;;;;;;;10.65;76.84;101277.75;5062287;28;20187;-70
2023/06/02 11:26:17;;;;;;;1.40;0.70;;;;;;;10.63;76.48;101276.78;5063487;28;20515;-70
2023/06/02 11:28:50;;;;;;;1.55;0.90;;;;;;;10.57;76.82;101273.97;5062010;28;20130;-69
2023/06/02 11:31:20;;;;;;;2.65;0.70;;;;;;;10.54;76.68;101279.03;5056245;28;20053;-69
2023/06/02 11:33:51;;;;;;;2.13;1.10;;;;;;;10.50;76.54;101279.75;5067340;28;20608;-70
2023/06/02 11:36:28;;;;;;;0.40;0.40;;;;;;;10.46;75.96;101275.25;5068156;28;20512;-69
2023/06/02 11:39:04;;;;;;;1.85;0.77;;;;;;;10.40;76.94;101273.34;5066257;28;20048;-69
2023/06/02 11:41:32;;;;;;;3.75;1.13;;;;;;;10.34;76.49;101275.69;5061429;28;20052;-69
2023/06/02 11:44:11;;;;;;;0.95;0.43;;;;;;;10.32;77.06;101268.69;5066558;28;20064;-69